ワルシャワ の空港の天気 - METARとTAF

ワルシャワ・フレデリック・ショパン空港 ( EPWA / WAW ) - ポーランド ワルシャワ
飛行場実況気象(Metar)
観測時間01/21 19:00 CET (01/21 18:00 UTC)
風向・風速北 2m/s
視程10km以上
天気現象
全天の8割程度の雲 雲底高度 370m
気温-1℃
湿度86%
気圧1015hPa
METAREPWA 211800Z 01004KT 9999 BKN012 M01/M03 Q1015 R11/2///95 BECMG BKN010
過去の天気等 Google飛行場航空写真 Wunderground天気予報

過去48時間のMETAR

飛行場予報(TAF)
発表時間: 1/21 18:30 CET (1/21 17:30 UTC)
予報対象時間: 21日19時 CET ~ 22日19時 CET
風向・風速北北東 3m/s
視程8,000m
全天の8割程度の雲 雲底高度 370m
21日20時 CET ~ 21日22時 CET に徐々に
視程4,000m
天気現象もや
全天の8割程度の雲 雲底高度 210m
21日22時 CET から 確率 40% で
視程2,000m
天気現象もや
全天の8割程度の雲 雲底高度 90m
22日9時 CET ~ 22日11時 CET に徐々に
風向・風速東南東 5m/s
視程8,000m
全天の4割程度の雲 雲底高度 370m
TAF EPWA 211730Z 2118/2218 02005KT 8000 BKN012
BECMG 2119/2121 4000 BR BKN007
PROB40 2121/2208 2000 BR BKN003
BECMG 2208/2210 11010KT 8000 SCT012